sensor_id;sensor_type;location;lat;lon;timestamp;pressure;altitude;pressure_sealevel;temperature;humidity
51237;BME280;37312;47.550;18.818;2022-10-16T00:00:58;99551.41;;;13.40;100.00
51237;BME280;37312;47.550;18.818;2022-10-16T00:03:23;99549.44;;;13.23;100.00
51237;BME280;37312;47.550;18.818;2022-10-16T00:05:49;99542.78;;;13.14;100.00
51237;BME280;37312;47.550;18.818;2022-10-16T00:08:15;99546.34;;;13.03;100.00
51237;BME280;37312;47.550;18.818;2022-10-16T00:10:41;99548.91;;;12.98;100.00
51237;BME280;37312;47.550;18.818;2022-10-16T00:13:07;99547.19;;;12.91;100.00
51237;BME280;37312;47.550;18.818;2022-10-16T00:15:35;99547.53;;;12.83;100.00
51237;BME280;37312;47.550;18.818;2022-10-16T00:18:03;99555.88;;;12.82;100.00
51237;BME280;37312;47.550;18.818;2022-10-16T00:20:29;99561.53;;;12.80;100.00
51237;BME280;37312;47.550;18.818;2022-10-16T00:22:57;99561.41;;;12.75;100.00
51237;BME280;37312;47.550;18.818;2022-10-16T00:25:23;99564.22;;;12.68;100.00
51237;BME280;37312;47.550;18.818;2022-10-16T00:27:49;99570.94;;;12.66;100.00
51237;BME280;37312;47.550;18.818;2022-10-16T00:30:15;99571.88;;;12.60;100.00
51237;BME280;37312;47.550;18.818;2022-10-16T00:32:41;99573.31;;;12.50;100.00
51237;BME280;37312;47.550;18.818;2022-10-16T00:35:06;99565.91;;;12.46;100.00
51237;BME280;37312;47.550;18.818;2022-10-16T00:37:32;99572.47;;;12.38;100.00
51237;BME280;37312;47.550;18.818;2022-10-16T00:39:58;99569.66;;;12.33;100.00
51237;BME280;37312;47.550;18.818;2022-10-16T00:42:24;99570.78;;;12.25;100.00
51237;BME280;37312;47.550;18.818;2022-10-16T00:44:56;99569.88;;;12.20;100.00
51237;BME280;37312;47.550;18.818;2022-10-16T00:49:51;99572.56;;;12.08;100.00
51237;BME280;37312;47.550;18.818;2022-10-16T00:52:19;99569.16;;;12.13;100.00
51237;BME280;37312;47.550;18.818;2022-10-16T00:54:46;99574.31;;;12.14;100.00
51237;BME280;37312;47.550;18.818;2022-10-16T00:57:13;99577.84;;;12.15;100.00
51237;BME280;37312;47.550;18.818;2022-10-16T00:59:40;99578.41;;;12.05;100.00
51237;BME280;37312;47.550;18.818;2022-10-16T01:02:09;99583.78;;;12.05;100.00
51237;BME280;37312;47.550;18.818;2022-10-16T01:04:38;99586.16;;;12.01;100.00
51237;BME280;37312;47.550;18.818;2022-10-16T01:15:29;99593.97;;;11.91;100.00
51237;BME280;37312;47.550;18.818;2022-10-16T01:18:15;99594.69;;;11.98;100.00
51237;BME280;37312;47.550;18.818;2022-10-16T01:23:38;99593.19;;;12.02;100.00
51237;BME280;37312;47.550;18.818;2022-10-16T01:29:05;99595.69;;;11.85;100.00
51237;BME280;37312;47.550;18.818;2022-10-16T01:31:37;99584.41;;;11.77;100.00
51237;BME280;37312;47.550;18.818;2022-10-16T01:34:53;99591.41;;;11.66;100.00
51237;BME280;37312;47.550;18.818;2022-10-16T01:40:24;99584.63;;;11.75;100.00
51237;BME280;37312;47.550;18.818;2022-10-16T01:42:56;99578.88;;;11.72;100.00
51237;BME280;37312;47.550;18.818;2022-10-16T01:45:25;99596.34;;;11.69;100.00
51237;BME280;37312;47.550;18.818;2022-10-16T01:47:53;99597.00;;;11.64;100.00
51237;BME280;37312;47.550;18.818;2022-10-16T01:50:20;99604.37;;;11.57;100.00
51237;BME280;37312;47.550;18.818;2022-10-16T01:52:48;99605.06;;;11.53;100.00
51237;BME280;37312;47.550;18.818;2022-10-16T01:55:22;99612.19;;;11.47;100.00
51237;BME280;37312;47.550;18.818;2022-10-16T01:57:51;99613.09;;;11.41;100.00
51237;BME280;37312;47.550;18.818;2022-10-16T02:00:20;99612.06;;;11.42;100.00
51237;BME280;37312;47.550;18.818;2022-10-16T02:02:49;99611.69;;;11.38;100.00
51237;BME280;37312;47.550;18.818;2022-10-16T02:05:43;99608.38;;;11.36;100.00
51237;BME280;37312;47.550;18.818;2022-10-16T02:08:10;99614.75;;;11.42;100.00
51237;BME280;37312;47.550;18.818;2022-10-16T02:10:36;99610.78;;;11.44;100.00
51237;BME280;37312;47.550;18.818;2022-10-16T02:13:17;99610.41;;;11.41;100.00
51237;BME280;37312;47.550;18.818;2022-10-16T02:15:44;99605.47;;;11.38;100.00
51237;BME280;37312;47.550;18.818;2022-10-16T02:18:10;99610.41;;;11.41;100.00
51237;BME280;37312;47.550;18.818;2022-10-16T02:21:08;99604.78;;;11.42;100.00
51237;BME280;37312;47.550;18.818;2022-10-16T02:26:43;99618.88;;;11.44;100.00
51237;BME280;37312;47.550;18.818;2022-10-16T02:29:17;99622.94;;;11.35;100.00
51237;BME280;37312;47.550;18.818;2022-10-16T02:31:47;99622.84;;;11.23;100.00
51237;BME280;37312;47.550;18.818;2022-10-16T02:34:16;99620.22;;;11.17;100.00
51237;BME280;37312;47.550;18.818;2022-10-16T02:36:44;99621.06;;;11.17;100.00
51237;BME280;37312;47.550;18.818;2022-10-16T02:39:11;99621.22;;;11.22;100.00
51237;BME280;37312;47.550;18.818;2022-10-16T02:41:37;99626.94;;;11.26;100.00
51237;BME280;37312;47.550;18.818;2022-10-16T02:44:03;99626.87;;;11.33;100.00
51237;BME280;37312;47.550;18.818;2022-10-16T02:46:29;99629.44;;;11.27;100.00
51237;BME280;37312;47.550;18.818;2022-10-16T02:48:55;99634.91;;;11.21;100.00
51237;BME280;37312;47.550;18.818;2022-10-16T02:51:21;99634.53;;;11.17;100.00
51237;BME280;37312;47.550;18.818;2022-10-16T02:53:47;99645.75;;;11.14;100.00
51237;BME280;37312;47.550;18.818;2022-10-16T02:56:13;99635.91;;;11.08;100.00
51237;BME280;37312;47.550;18.818;2022-10-16T02:58:39;99649.03;;;10.98;100.00
51237;BME280;37312;47.550;18.818;2022-10-16T03:01:05;99640.34;;;10.96;100.00
51237;BME280;37312;47.550;18.818;2022-10-16T03:03:31;99650.09;;;10.97;100.00
51237;BME280;37312;47.550;18.818;2022-10-16T03:05:57;99640.63;;;10.88;100.00
51237;BME280;37312;47.550;18.818;2022-10-16T03:08:23;99647.16;;;10.80;100.00
51237;BME280;37312;47.550;18.818;2022-10-16T03:10:51;99646.25;;;10.86;100.00
51237;BME280;37312;47.550;18.818;2022-10-16T03:13:17;99650.16;;;10.90;100.00
51237;BME280;37312;47.550;18.818;2022-10-16T03:15:46;99650.22;;;10.83;100.00
51237;BME280;37312;47.550;18.818;2022-10-16T03:18:12;99652.25;;;10.88;100.00
51237;BME280;37312;47.550;18.818;2022-10-16T03:20:37;99655.50;;;10.97;100.00
51237;BME280;37312;47.550;18.818;2022-10-16T03:23:07;99658.25;;;10.90;100.00
51237;BME280;37312;47.550;18.818;2022-10-16T03:25:37;99652.88;;;10.90;100.00
51237;BME280;37312;47.550;18.818;2022-10-16T03:28:06;99660.72;;;10.92;100.00
51237;BME280;37312;47.550;18.818;2022-10-16T03:30:32;99660.34;;;10.88;100.00
51237;BME280;37312;47.550;18.818;2022-10-16T03:32:58;99667.44;;;10.82;100.00
51237;BME280;37312;47.550;18.818;2022-10-16T03:35:24;99666.59;;;10.82;100.00
51237;BME280;37312;47.550;18.818;2022-10-16T03:37:50;99667.97;;;10.91;100.00
51237;BME280;37312;47.550;18.818;2022-10-16T03:40:17;99671.47;;;10.92;100.00
51237;BME280;37312;47.550;18.818;2022-10-16T03:42:43;99667.44;;;10.82;100.00
51237;BME280;37312;47.550;18.818;2022-10-16T03:45:10;99669.09;;;10.83;100.00
51237;BME280;37312;47.550;18.818;2022-10-16T03:47:36;99663.72;;;10.83;100.00
51237;BME280;37312;47.550;18.818;2022-10-16T03:50:03;99673.87;;;10.81;100.00
51237;BME280;37312;47.550;18.818;2022-10-16T03:52:29;99673.22;;;10.86;100.00
51237;BME280;37312;47.550;18.818;2022-10-16T03:54:55;99671.53;;;10.85;100.00
51237;BME280;37312;47.550;18.818;2022-10-16T03:57:21;99674.91;;;10.80;100.00
51237;BME280;37312;47.550;18.818;2022-10-16T03:59:47;99681.81;;;10.76;100.00
51237;BME280;37312;47.550;18.818;2022-10-16T04:02:13;99681.63;;;10.71;100.00
51237;BME280;37312;47.550;18.818;2022-10-16T04:04:39;99684.31;;;10.71;100.00
51237;BME280;37312;47.550;18.818;2022-10-16T04:07:05;99681.47;;;10.66;100.00
51237;BME280;37312;47.550;18.818;2022-10-16T04:09:30;99690.41;;;10.60;100.00
51237;BME280;37312;47.550;18.818;2022-10-16T04:11:56;99688.00;;;10.52;100.00
51237;BME280;37312;47.550;18.818;2022-10-16T04:14:22;99688.72;;;10.40;100.00
51237;BME280;37312;47.550;18.818;2022-10-16T04:16:48;99698.09;;;10.31;100.00
51237;BME280;37312;47.550;18.818;2022-10-16T04:19:14;99689.37;;;10.36;100.00
51237;BME280;37312;47.550;18.818;2022-10-16T04:21:40;99696.84;;;10.34;100.00
51237;BME280;37312;47.550;18.818;2022-10-16T04:24:06;99696.00;;;10.33;100.00
51237;BME280;37312;47.550;18.818;2022-10-16T04:26:32;99697.03;;;10.32;100.00
51237;BME280;37312;47.550;18.818;2022-10-16T04:28:58;99691.88;;;10.31;100.00
51237;BME280;37312;47.550;18.818;2022-10-16T04:31:24;99689.41;;;10.29;100.00
51237;BME280;37312;47.550;18.818;2022-10-16T04:33:50;99692.31;;;10.21;100.00
51237;BME280;37312;47.550;18.818;2022-10-16T04:36:16;99693.09;;;10.28;100.00
51237;BME280;37312;47.550;18.818;2022-10-16T04:38:41;99695.63;;;10.23;100.00
51237;BME280;37312;47.550;18.818;2022-10-16T04:41:07;99692.53;;;10.19;100.00
51237;BME280;37312;47.550;18.818;2022-10-16T04:43:34;99697.75;;;10.14;100.00
51237;BME280;37312;47.550;18.818;2022-10-16T04:46:00;99704.19;;;10.13;100.00
51237;BME280;37312;47.550;18.818;2022-10-16T04:48:27;99709.59;;;10.07;100.00
51237;BME280;37312;47.550;18.818;2022-10-16T04:50:53;99705.66;;;10.09;100.00
51237;BME280;37312;47.550;18.818;2022-10-16T04:53:19;99694.69;;;10.11;100.00
51237;BME280;37312;47.550;18.818;2022-10-16T04:55:45;99699.62;;;10.14;100.00
51237;BME280;37312;47.550;18.818;2022-10-16T04:58:11;99694.28;;;10.07;100.00
51237;BME280;37312;47.550;18.818;2022-10-16T05:00:38;99692.06;;;9.97;100.00
51237;BME280;37312;47.550;18.818;2022-10-16T05:03:03;99692.91;;;9.91;100.00
51237;BME280;37312;47.550;18.818;2022-10-16T05:05:33;99693.94;;;9.90;100.00
51237;BME280;37312;47.550;18.818;2022-10-16T05:07:59;99698.47;;;9.96;100.00
51237;BME280;37312;47.550;18.818;2022-10-16T05:10:25;99697.00;;;10.00;100.00
51237;BME280;37312;47.550;18.818;2022-10-16T05:12:51;99703.84;;;9.96;100.00
51237;BME280;37312;47.550;18.818;2022-10-16T05:15:17;99704.22;;;10.07;100.00
51237;BME280;37312;47.550;18.818;2022-10-16T05:17:44;99706.91;;;10.07;100.00
51237;BME280;37312;47.550;18.818;2022-10-16T05:20:11;99714.19;;;9.99;100.00
51237;BME280;37312;47.550;18.818;2022-10-16T05:22:37;99714.19;;;9.99;100.00
51237;BME280;37312;47.550;18.818;2022-10-16T05:25:03;99712.31;;;10.00;100.00
51237;BME280;37312;47.550;18.818;2022-10-16T05:27:29;99714.81;;;9.95;100.00
51237;BME280;37312;47.550;18.818;2022-10-16T05:29:55;99713.38;;;9.92;100.00
51237;BME280;37312;47.550;18.818;2022-10-16T05:32:21;99716.06;;;9.92;100.00
51237;BME280;37312;47.550;18.818;2022-10-16T05:34:47;99718.31;;;10.02;100.00
51237;BME280;37312;47.550;18.818;2022-10-16T05:37:13;99724.66;;;10.14;100.00
51237;BME280;37312;47.550;18.818;2022-10-16T05:39:39;99727.72;;;10.25;100.00
51237;BME280;37312;47.550;18.818;2022-10-16T05:42:05;99727.72;;;10.31;100.00
51237;BME280;37312;47.550;18.818;2022-10-16T05:44:31;99727.72;;;10.31;100.00
51237;BME280;37312;47.550;18.818;2022-10-16T05:46:57;99729.53;;;10.37;100.00
51237;BME280;37312;47.550;18.818;2022-10-16T05:49:23;99712.66;;;10.49;100.00
51237;BME280;37312;47.550;18.818;2022-10-16T05:51:49;99723.56;;;10.60;100.00
51237;BME280;37312;47.550;18.818;2022-10-16T05:54:15;99729.94;;;10.66;100.00
51237;BME280;37312;47.550;18.818;2022-10-16T05:56:41;99734.69;;;10.71;100.00
51237;BME280;37312;47.550;18.818;2022-10-16T05:59:07;99729.44;;;10.76;100.00
51237;BME280;37312;47.550;18.818;2022-10-16T06:01:33;99738.25;;;10.90;100.00
51237;BME280;37312;47.550;18.818;2022-10-16T06:03:59;99746.06;;;10.98;100.00
51237;BME280;37312;47.550;18.818;2022-10-16T06:06:26;99749.31;;;11.06;100.00
51237;BME280;37312;47.550;18.818;2022-10-16T06:08:55;99741.53;;;11.17;100.00
51237;BME280;37312;47.550;18.818;2022-10-16T06:11:26;99746.81;;;11.30;100.00
51237;BME280;37312;47.550;18.818;2022-10-16T06:13:57;99752.75;;;11.39;100.00
51237;BME280;37312;47.550;18.818;2022-10-16T06:16:24;99764.47;;;11.51;100.00
51237;BME280;37312;47.550;18.818;2022-10-16T06:18:52;99767.91;;;11.58;100.00
51237;BME280;37312;47.550;18.818;2022-10-16T06:21:20;99776.59;;;11.60;100.00
51237;BME280;37312;47.550;18.818;2022-10-16T06:23:46;99785.88;;;11.64;100.00
51237;BME280;37312;47.550;18.818;2022-10-16T06:26:15;99793.06;;;11.71;100.00
51237;BME280;37312;47.550;18.818;2022-10-16T06:28:41;99784.47;;;11.80;100.00
51237;BME280;37312;47.550;18.818;2022-10-16T06:31:09;99793.13;;;12.07;100.00
51237;BME280;37312;47.550;18.818;2022-10-16T06:33:36;99795.63;;;12.21;100.00
51237;BME280;37312;47.550;18.818;2022-10-16T06:38:34;99785.38;;;12.41;100.00
51237;BME280;37312;47.550;18.818;2022-10-16T06:41:00;99795.63;;;12.39;100.00
51237;BME280;37312;47.550;18.818;2022-10-16T06:43:26;99803.13;;;12.37;100.00
51237;BME280;37312;47.550;18.818;2022-10-16T06:45:56;99808.44;;;12.44;99.44
51237;BME280;37312;47.550;18.818;2022-10-16T06:48:23;99821.31;;;12.60;97.85
51237;BME280;37312;47.550;18.818;2022-10-16T06:50:59;99828.53;;;12.78;98.16
51237;BME280;37312;47.550;18.818;2022-10-16T06:53:27;99832.75;;;13.16;94.09
51237;BME280;37312;47.550;18.818;2022-10-16T06:55:53;99836.09;;;13.42;94.00
51237;BME280;37312;47.550;18.818;2022-10-16T06:58:19;99846.81;;;13.48;92.76
51237;BME280;37312;47.550;18.818;2022-10-16T07:00:45;99845.75;;;13.73;91.76
51237;BME280;37312;47.550;18.818;2022-10-16T07:03:11;99848.97;;;14.22;88.07
51237;BME280;37312;47.550;18.818;2022-10-16T07:05:38;99844.59;;;14.33;89.38
51237;BME280;37312;47.550;18.818;2022-10-16T07:08:04;99846.31;;;13.98;88.21
51237;BME280;37312;47.550;18.818;2022-10-16T07:10:31;99837.88;;;13.71;89.95
51237;BME280;37312;47.550;18.818;2022-10-16T07:12:57;99843.38;;;13.76;90.89
51237;BME280;37312;47.550;18.818;2022-10-16T07:15:24;99840.53;;;13.95;90.76
51237;BME280;37312;47.550;18.818;2022-10-16T07:17:50;99839.53;;;14.65;85.73
51237;BME280;37312;47.550;18.818;2022-10-16T07:20:16;99842.84;;;15.47;80.40
51237;BME280;37312;47.550;18.818;2022-10-16T07:22:41;99843.50;;;16.32;78.49
51237;BME280;37312;47.550;18.818;2022-10-16T07:25:07;99850.22;;;16.73;74.09
51237;BME280;37312;47.550;18.818;2022-10-16T07:27:33;99848.00;;;16.92;72.43
51237;BME280;37312;47.550;18.818;2022-10-16T07:29:59;99852.41;;;17.25;69.31
51237;BME280;37312;47.550;18.818;2022-10-16T07:32:25;99848.84;;;17.25;68.32
51237;BME280;37312;47.550;18.818;2022-10-16T07:34:52;99858.50;;;18.23;68.93
51237;BME280;37312;47.550;18.818;2022-10-16T07:37:18;99865.56;;;18.87;65.98
51237;BME280;37312;47.550;18.818;2022-10-16T07:39:44;99870.53;;;19.46;61.94
51237;BME280;37312;47.550;18.818;2022-10-16T07:42:10;99880.66;;;19.82;57.13
51237;BME280;37312;47.550;18.818;2022-10-16T07:44:35;99888.09;;;21.06;52.97
51237;BME280;37312;47.550;18.818;2022-10-16T07:47:01;99892.06;;;21.93;50.64
51237;BME280;37312;47.550;18.818;2022-10-16T07:49:28;99894.19;;;21.72;49.52
51237;BME280;37312;47.550;18.818;2022-10-16T07:51:54;99893.66;;;21.99;51.47
51237;BME280;37312;47.550;18.818;2022-10-16T07:54:20;99902.03;;;21.83;50.89
51237;BME280;37312;47.550;18.818;2022-10-16T07:56:46;99908.63;;;22.12;48.40
51237;BME280;37312;47.550;18.818;2022-10-16T07:59:12;99909.94;;;22.86;47.28
51237;BME280;37312;47.550;18.818;2022-10-16T08:01:37;99906.59;;;22.89;46.55
51237;BME280;37312;47.550;18.818;2022-10-16T08:04:03;99901.22;;;23.22;45.81
51237;BME280;37312;47.550;18.818;2022-10-16T08:06:35;99894.53;;;22.66;45.96
51237;BME280;37312;47.550;18.818;2022-10-16T08:09:02;99893.56;;;23.00;49.05
51237;BME280;37312;47.550;18.818;2022-10-16T08:11:28;99892.34;;;22.44;46.99
51237;BME280;37312;47.550;18.818;2022-10-16T08:13:54;99899.66;;;22.73;45.08
51237;BME280;37312;47.550;18.818;2022-10-16T08:16:21;99900.06;;;22.13;46.36
51237;BME280;37312;47.550;18.818;2022-10-16T08:18:47;99890.31;;;22.02;47.09
51237;BME280;37312;47.550;18.818;2022-10-16T08:21:16;99895.84;;;22.50;46.87
51237;BME280;37312;47.550;18.818;2022-10-16T08:23:42;99900.56;;;22.87;46.25
51237;BME280;37312;47.550;18.818;2022-10-16T08:26:10;99900.94;;;22.81;46.26
51237;BME280;37312;47.550;18.818;2022-10-16T08:28:36;99908.59;;;23.41;44.53
51237;BME280;37312;47.550;18.818;2022-10-16T08:33:35;99921.41;;;22.69;45.14
51237;BME280;37312;47.550;18.818;2022-10-16T08:36:03;99930.59;;;23.03;43.36
51237;BME280;37312;47.550;18.818;2022-10-16T08:38:29;99932.22;;;23.61;44.51
51237;BME280;37312;47.550;18.818;2022-10-16T08:41:08;99929.22;;;24.23;42.57
51237;BME280;37312;47.550;18.818;2022-10-16T08:49:15;99945.50;;;26.86;35.99
51237;BME280;37312;47.550;18.818;2022-10-16T08:51:42;99936.56;;;26.80;36.60
51237;BME280;37312;47.550;18.818;2022-10-16T08:56:57;99928.59;;;25.76;40.04
51237;BME280;37312;47.550;18.818;2022-10-16T08:59:26;99926.97;;;25.53;38.17
51237;BME280;37312;47.550;18.818;2022-10-16T09:01:52;99934.28;;;25.94;38.05
51237;BME280;37312;47.550;18.818;2022-10-16T09:10:36;99933.91;;;23.57;44.15
51237;BME280;37312;47.550;18.818;2022-10-16T09:13:17;99925.91;;;22.36;46.66
51237;BME280;37312;47.550;18.818;2022-10-16T09:16:10;99923.63;;;21.16;50.37
51237;BME280;37312;47.550;18.818;2022-10-16T09:21:36;99927.38;;;19.95;55.28
51237;BME280;37312;47.550;18.818;2022-10-16T09:24:19;99937.72;;;19.63;55.31
51237;BME280;37312;47.550;18.818;2022-10-16T09:26:46;99934.47;;;19.76;57.37
51237;BME280;37312;47.550;18.818;2022-10-16T09:29:14;99927.75;;;20.69;53.37
51237;BME280;37312;47.550;18.818;2022-10-16T09:31:40;99938.84;;;22.79;47.58
51237;BME280;37312;47.550;18.818;2022-10-16T09:34:32;99948.63;;;25.23;41.42
51237;BME280;37312;47.550;18.818;2022-10-16T09:36:59;99960.28;;;26.33;38.16
51237;BME280;37312;47.550;18.818;2022-10-16T09:39:26;99966.41;;;27.18;36.45
51237;BME280;37312;47.550;18.818;2022-10-16T09:41:53;99961.84;;;27.14;37.04
51237;BME280;37312;47.550;18.818;2022-10-16T09:46:49;99968.75;;;26.45;37.05
51237;BME280;37312;47.550;18.818;2022-10-16T09:49:26;99970.19;;;26.34;38.88
51237;BME280;37312;47.550;18.818;2022-10-16T09:52:06;99970.22;;;25.66;38.97
51237;BME280;37312;47.550;18.818;2022-10-16T09:54:36;99964.06;;;24.13;42.49
51237;BME280;37312;47.550;18.818;2022-10-16T09:57:12;99950.72;;;22.74;46.39
51237;BME280;37312;47.550;18.818;2022-10-16T09:59:58;99947.25;;;22.68;48.03
51237;BME280;37312;47.550;18.818;2022-10-16T10:02:30;99941.66;;;24.34;43.41
51237;BME280;37312;47.550;18.818;2022-10-16T10:04:59;99932.94;;;25.91;40.14
51237;BME280;37312;47.550;18.818;2022-10-16T10:07:31;99924.59;;;24.87;42.48
51237;BME280;37312;47.550;18.818;2022-10-16T10:10:03;99933.31;;;25.98;39.76
51237;BME280;37312;47.550;18.818;2022-10-16T10:12:31;99941.28;;;24.54;41.49
51237;BME280;37312;47.550;18.818;2022-10-16T10:15:04;99938.75;;;24.58;43.29
51237;BME280;37312;47.550;18.818;2022-10-16T10:17:31;99928.91;;;23.78;46.24
51237;BME280;37312;47.550;18.818;2022-10-16T10:20:15;99931.72;;;23.21;47.58
51237;BME280;37312;47.550;18.818;2022-10-16T10:22:43;99926.00;;;22.74;49.15
51237;BME280;37312;47.550;18.818;2022-10-16T10:30:15;99934.09;;;21.09;51.63
51237;BME280;37312;47.550;18.818;2022-10-16T10:46:08;99941.88;;;19.86;57.85
51237;BME280;37312;47.550;18.818;2022-10-16T10:56:56;99947.59;;;20.15;57.91
51237;BME280;37312;47.550;18.818;2022-10-16T11:07:50;99924.87;;;19.37;61.72
51237;BME280;37312;47.550;18.818;2022-10-16T11:10:25;99931.69;;;19.20;60.85
51237;BME280;37312;47.550;18.818;2022-10-16T11:13:00;99925.16;;;19.36;61.86
51237;BME280;37312;47.550;18.818;2022-10-16T11:15:37;99924.34;;;19.41;61.67
51237;BME280;37312;47.550;18.818;2022-10-16T11:18:16;99920.25;;;19.64;61.71
51237;BME280;37312;47.550;18.818;2022-10-16T11:20:56;99921.06;;;19.64;58.88
51237;BME280;37312;47.550;18.818;2022-10-16T11:25:59;99922.97;;;19.43;59.47
51237;BME280;37312;47.550;18.818;2022-10-16T11:28:40;99936.12;;;19.56;61.22
51237;BME280;37312;47.550;18.818;2022-10-16T11:31:32;99929.03;;;19.86;60.66
51237;BME280;37312;47.550;18.818;2022-10-16T11:34:31;99917.00;;;19.77;60.70
51237;BME280;37312;47.550;18.818;2022-10-16T11:37:06;99920.00;;;19.75;59.34
51237;BME280;37312;47.550;18.818;2022-10-16T11:39:35;99922.47;;;19.82;58.86
51237;BME280;37312;47.550;18.818;2022-10-16T11:42:12;99921.38;;;19.78;61.76
51237;BME280;37312;47.550;18.818;2022-10-16T11:44:51;99928.75;;;19.72;58.79
51237;BME280;37312;47.550;18.818;2022-10-16T11:47:37;99931.47;;;19.57;60.10
51237;BME280;37312;47.550;18.818;2022-10-16T11:52:53;99916.69;;;19.58;59.75
51237;BME280;37312;47.550;18.818;2022-10-16T11:55:36;99922.97;;;19.48;59.76
51237;BME280;37312;47.550;18.818;2022-10-16T12:03:32;99926.75;;;20.29;58.77
51237;BME280;37312;47.550;18.818;2022-10-16T12:06:06;99923.47;;;20.17;59.40
51237;BME280;37312;47.550;18.818;2022-10-16T12:08:37;99919.66;;;20.23;58.20
51237;BME280;37312;47.550;18.818;2022-10-16T12:13:46;99903.88;;;19.58;59.50
51237;BME280;37312;47.550;18.818;2022-10-16T12:18:41;99906.59;;;19.58;61.74
51237;BME280;37312;47.550;18.818;2022-10-16T12:21:08;99902.75;;;19.59;60.18
51237;BME280;37312;47.550;18.818;2022-10-16T12:23:46;99899.75;;;19.46;60.53
51237;BME280;37312;47.550;18.818;2022-10-16T12:26:13;99899.50;;;19.52;58.63
51237;BME280;37312;47.550;18.818;2022-10-16T12:28:39;99900.28;;;19.37;59.63
51237;BME280;37312;47.550;18.818;2022-10-16T12:31:07;99894.56;;;19.54;59.89
51237;BME280;37312;47.550;18.818;2022-10-16T12:34:01;99894.59;;;19.49;60.66
51237;BME280;37312;47.550;18.818;2022-10-16T12:36:32;99896.50;;;19.54;60.79
51237;BME280;37312;47.550;18.818;2022-10-16T12:39:00;99894.03;;;19.73;61.96
51237;BME280;37312;47.550;18.818;2022-10-16T12:43:54;99892.66;;;19.75;59.27
51237;BME280;37312;47.550;18.818;2022-10-16T12:46:23;99903.03;;;19.78;60.44
51237;BME280;37312;47.550;18.818;2022-10-16T12:48:50;99906.34;;;19.65;60.22
51237;BME280;37312;47.550;18.818;2022-10-16T12:54:04;99900.03;;;19.65;59.40
51237;BME280;37312;47.550;18.818;2022-10-16T12:59:09;99914.00;;;19.73;58.36
51237;BME280;37312;47.550;18.818;2022-10-16T13:04:46;99912.31;;;19.62;60.60
51237;BME280;37312;47.550;18.818;2022-10-16T13:12:55;99917.53;;;19.64;61.11
51237;BME280;37312;47.550;18.818;2022-10-16T13:23:21;99918.88;;;19.66;61.77
51237;BME280;37312;47.550;18.818;2022-10-16T13:28:32;99920.25;;;19.74;62.36
51237;BME280;37312;47.550;18.818;2022-10-16T13:31:00;99926.84;;;19.73;62.57
51237;BME280;37312;47.550;18.818;2022-10-16T13:33:40;99924.37;;;19.76;60.31
51237;BME280;37312;47.550;18.818;2022-10-16T13:36:19;99921.66;;;19.76;60.82
51237;BME280;37312;47.550;18.818;2022-10-16T13:38:46;99920.00;;;19.65;60.67
51237;BME280;37312;47.550;18.818;2022-10-16T13:41:17;99927.06;;;19.51;61.84
51237;BME280;37312;47.550;18.818;2022-10-16T13:46:20;99923.78;;;19.49;60.81
51237;BME280;37312;47.550;18.818;2022-10-16T13:49:04;99928.44;;;19.48;61.31
51237;BME280;37312;47.550;18.818;2022-10-16T13:51:31;99927.63;;;19.48;61.85
51237;BME280;37312;47.550;18.818;2022-10-16T13:53:57;99927.91;;;19.46;61.55
51237;BME280;37312;47.550;18.818;2022-10-16T13:56:29;99933.37;;;19.41;62.57
51237;BME280;37312;47.550;18.818;2022-10-16T13:59:07;99930.63;;;19.36;62.96
51237;BME280;37312;47.550;18.818;2022-10-16T14:01:47;99929.78;;;19.35;63.34
51237;BME280;37312;47.550;18.818;2022-10-16T14:04:14;99930.59;;;19.26;63.28
51237;BME280;37312;47.550;18.818;2022-10-16T14:06:43;99924.84;;;19.12;64.42
51237;BME280;37312;47.550;18.818;2022-10-16T14:09:16;99929.22;;;19.08;64.33
51237;BME280;37312;47.550;18.818;2022-10-16T14:11:49;99931.94;;;19.08;64.77
51237;BME280;37312;47.550;18.818;2022-10-16T14:14:18;99925.66;;;19.12;63.91
51237;BME280;37312;47.550;18.818;2022-10-16T14:16:45;99933.03;;;19.12;63.89
51237;BME280;37312;47.550;18.818;2022-10-16T14:21:44;99934.41;;;19.09;63.80
51237;BME280;37312;47.550;18.818;2022-10-16T14:24:12;99931.69;;;19.09;64.61
51237;BME280;37312;47.550;18.818;2022-10-16T14:26:44;99936.84;;;19.06;63.63
51237;BME280;37312;47.550;18.818;2022-10-16T14:29:17;99930.81;;;18.99;62.61
51237;BME280;37312;47.550;18.818;2022-10-16T14:32:20;99930.00;;;18.98;62.44
51237;BME280;37312;47.550;18.818;2022-10-16T14:34:53;99929.72;;;18.94;63.60
51237;BME280;37312;47.550;18.818;2022-10-16T14:37:26;99938.16;;;18.88;64.31
51237;BME280;37312;47.550;18.818;2022-10-16T14:39:54;99939.25;;;18.87;64.20
51237;BME280;37312;47.550;18.818;2022-10-16T14:42:22;99948.47;;;18.75;62.69
51237;BME280;37312;47.550;18.818;2022-10-16T14:44:55;99944.62;;;18.66;64.47
51237;BME280;37312;47.550;18.818;2022-10-16T14:47:23;99939.66;;;18.58;64.29
51237;BME280;37312;47.550;18.818;2022-10-16T14:49:52;99939.06;;;18.46;63.59
51237;BME280;37312;47.550;18.818;2022-10-16T14:52:21;99939.87;;;18.46;64.23
51237;BME280;37312;47.550;18.818;2022-10-16T14:54:50;99935.47;;;18.40;64.14
51237;BME280;37312;47.550;18.818;2022-10-16T14:57:21;99935.69;;;18.28;65.82
51237;BME280;37312;47.550;18.818;2022-10-16T14:59:49;99933.44;;;18.20;66.55
51237;BME280;37312;47.550;18.818;2022-10-16T15:02:34;99935.00;;;18.06;68.19
51237;BME280;37312;47.550;18.818;2022-10-16T15:05:18;99939.31;;;17.97;66.40
51237;BME280;37312;47.550;18.818;2022-10-16T15:07:46;99944.19;;;17.89;66.62